createdAt,value
2023-04-18T00:01:08.076Z,0.35
2023-04-18T00:04:10.843Z,0.70
2023-04-18T00:07:17.440Z,1.70
2023-04-18T00:10:20.054Z,1.00
2023-04-18T00:13:23.056Z,1.15
2023-04-18T00:16:25.513Z,0.65
2023-04-18T00:19:28.174Z,1.07
2023-04-18T00:22:30.793Z,1.13
2023-04-18T00:25:33.458Z,0.80
2023-04-18T00:28:36.592Z,0.65
2023-04-18T00:31:39.033Z,2.22
2023-04-18T00:34:41.507Z,2.30
2023-04-18T00:37:43.908Z,0.82
2023-04-18T00:40:46.476Z,0.47
2023-04-18T00:43:49.014Z,0.68
2023-04-18T00:46:51.531Z,0.63
2023-04-18T00:49:54.674Z,0.43
2023-04-18T00:52:57.483Z,0.73
2023-04-18T00:55:59.947Z,0.90
2023-04-18T00:59:02.462Z,0.70
2023-04-18T01:02:05.318Z,1.45
2023-04-18T01:05:09.886Z,0.37
2023-04-18T01:08:14.788Z,0.73
2023-04-18T01:11:17.575Z,0.60
2023-04-18T01:14:23.449Z,0.35
2023-04-18T01:17:28.504Z,1.00
2023-04-18T01:20:31.611Z,1.80
2023-04-18T01:23:34.300Z,0.20
2023-04-18T01:26:36.865Z,0.63
2023-04-18T01:29:41.059Z,1.05
2023-04-18T01:32:44.625Z,1.13
2023-04-18T01:35:47.596Z,0.60
2023-04-18T01:38:50.466Z,1.05
2023-04-18T01:41:53.143Z,0.95
2023-04-18T01:44:55.676Z,0.60
2023-04-18T01:47:58.221Z,0.65
2023-04-18T01:51:01.114Z,0.80
2023-04-18T01:54:03.595Z,0.43
2023-04-18T01:57:06.456Z,1.00
2023-04-18T02:00:09.502Z,0.80
2023-04-18T02:03:18.020Z,0.75
2023-04-18T02:06:20.979Z,0.50
2023-04-18T02:09:24.326Z,0.65
2023-04-18T02:12:28.147Z,0.65
2023-04-18T02:15:30.563Z,0.40
2023-04-18T02:18:34.577Z,0.93
2023-04-18T02:21:37.082Z,0.60
2023-04-18T02:24:39.474Z,0.40
2023-04-18T02:27:41.951Z,1.65
2023-04-18T02:30:44.597Z,3.90
2023-04-18T02:33:48.038Z,0.75
2023-04-18T02:36:50.544Z,0.20
2023-04-18T02:39:53.352Z,0.73
2023-04-18T02:42:55.842Z,0.45
2023-04-18T02:45:58.453Z,1.17
2023-04-18T02:49:01.015Z,0.47
2023-04-18T02:52:03.691Z,0.40
2023-04-18T02:55:06.269Z,1.85
2023-04-18T02:58:13.142Z,0.30
2023-04-18T03:01:30.871Z,0.60
2023-04-18T03:04:42.023Z,0.40
2023-04-18T03:07:45.318Z,0.63
2023-04-18T03:10:48.865Z,0.30
2023-04-18T03:13:53.676Z,0.47
2023-04-18T03:16:57.818Z,0.45
2023-04-18T03:20:06.210Z,0.82
2023-04-18T03:23:08.747Z,0.63
2023-04-18T03:26:13.828Z,0.47
2023-04-18T03:29:17.732Z,1.08
2023-04-18T03:32:22.326Z,1.13
2023-04-18T03:35:25.176Z,3.20
2023-04-18T03:38:27.767Z,1.10
2023-04-18T03:41:30.428Z,0.85
2023-04-18T03:44:33.330Z,1.45
2023-04-18T03:47:35.867Z,0.90
2023-04-18T03:50:38.578Z,1.35
2023-04-18T03:53:44.845Z,0.57
2023-04-18T03:56:47.357Z,0.57
2023-04-18T03:59:51.132Z,0.85
2023-04-18T04:02:54.202Z,4.07
2023-04-18T04:05:57.033Z,1.38
2023-04-18T04:08:59.794Z,1.33
2023-04-18T04:12:04.313Z,2.38
2023-04-18T04:15:08.241Z,2.10
2023-04-18T04:18:13.566Z,2.40
2023-04-18T04:21:20.661Z,1.42
2023-04-18T04:24:29.172Z,1.03
2023-04-18T04:27:34.094Z,1.35
2023-04-18T04:30:38.284Z,1.20
2023-04-18T04:33:41.105Z,1.17
2023-04-18T04:36:51.251Z,1.60
2023-04-18T04:39:55.522Z,2.43
2023-04-18T04:43:21.663Z,0.70
2023-04-18T04:46:24.621Z,0.28
2023-04-18T04:49:27.095Z,1.02
2023-04-18T04:52:29.742Z,2.17
2023-04-18T04:55:32.887Z,5.43
2023-04-18T04:58:37.022Z,3.15
2023-04-18T05:01:50.601Z,8.55
2023-04-18T05:04:53.127Z,6.55
2023-04-18T05:07:55.785Z,3.63
2023-04-18T05:10:58.427Z,0.70
2023-04-18T05:14:01.730Z,1.25
2023-04-18T05:17:04.341Z,1.58
2023-04-18T05:20:07.533Z,0.82
2023-04-18T05:23:10.282Z,1.33
2023-04-18T05:26:12.790Z,1.67
2023-04-18T05:29:15.503Z,3.55
2023-04-18T05:32:18.297Z,1.10
2023-04-18T05:35:20.859Z,1.48
2023-04-18T05:38:23.353Z,3.88
2023-04-18T05:41:26.218Z,3.80
2023-04-18T05:44:29.551Z,3.20
2023-04-18T05:47:33.729Z,2.80
2023-04-18T05:50:37.609Z,0.77
2023-04-18T05:53:40.051Z,1.25
2023-04-18T05:56:42.640Z,0.50
2023-04-18T05:59:45.157Z,1.25
2023-04-18T06:02:47.689Z,3.15
2023-04-18T06:05:50.368Z,2.88
2023-04-18T06:08:54.144Z,3.15
2023-04-18T06:11:57.885Z,3.57
2023-04-18T06:15:00.738Z,4.10
2023-04-18T06:18:03.403Z,2.50
2023-04-18T06:21:06.199Z,0.88
2023-04-18T06:24:09.286Z,0.93
2023-04-18T06:27:24.111Z,2.23
2023-04-18T06:30:31.012Z,1.95
2023-04-18T06:33:33.507Z,1.38
2023-04-18T06:36:36.301Z,1.55
2023-04-18T06:39:39.257Z,1.90
2023-04-18T06:42:42.637Z,2.07
2023-04-18T06:45:45.627Z,1.05
2023-04-18T06:48:49.870Z,1.65
2023-04-18T06:51:54.230Z,1.85
2023-04-18T06:54:56.847Z,1.27
2023-04-18T06:58:00.553Z,1.50
2023-04-18T07:01:03.196Z,2.65
2023-04-18T07:04:06.295Z,0.52
2023-04-18T07:07:08.981Z,0.82
2023-04-18T07:10:12.422Z,1.70
2023-04-18T07:13:14.860Z,2.93
2023-04-18T07:16:17.531Z,3.72
2023-04-18T07:19:20.197Z,1.52
2023-04-18T07:22:22.820Z,1.35
2023-04-18T07:25:26.153Z,2.30
2023-04-18T07:28:29.559Z,2.43
2023-04-18T07:31:32.064Z,1.58
2023-04-18T07:34:36.187Z,3.08
2023-04-18T07:37:38.833Z,2.72
2023-04-18T07:40:41.576Z,1.50
2023-04-18T07:43:45.001Z,2.40
2023-04-18T07:46:47.814Z,1.38
2023-04-18T07:49:50.778Z,5.53
2023-04-18T07:52:53.374Z,2.63
2023-04-18T07:55:55.858Z,2.53
2023-04-18T07:58:58.508Z,3.27
2023-04-18T08:02:01.146Z,2.75
2023-04-18T08:05:04.019Z,1.67
2023-04-18T08:08:11.443Z,3.05
2023-04-18T08:11:14.020Z,3.63
2023-04-18T08:14:16.608Z,1.87
2023-04-18T08:17:19.150Z,1.30
2023-04-18T08:20:21.851Z,3.22
2023-04-18T08:23:24.489Z,1.25
2023-04-18T08:26:27.321Z,1.98
2023-04-18T08:29:29.915Z,0.80
2023-04-18T08:32:32.974Z,2.38
2023-04-18T08:35:35.589Z,1.38
2023-04-18T08:38:38.026Z,6.15
2023-04-18T08:41:42.593Z,3.92
2023-04-18T08:44:48.771Z,1.47
2023-04-18T08:47:52.129Z,2.28
2023-04-18T08:50:59.044Z,2.28
2023-04-18T08:54:04.574Z,2.17
2023-04-18T08:57:08.869Z,3.08
2023-04-18T09:00:12.006Z,2.87
2023-04-18T09:03:15.787Z,1.70
2023-04-18T09:06:19.201Z,2.05
2023-04-18T09:09:27.413Z,2.47
2023-04-18T09:12:30.223Z,2.28
2023-04-18T09:15:32.751Z,2.73
2023-04-18T09:18:35.413Z,2.53
2023-04-18T09:21:42.598Z,2.17
2023-04-18T09:24:53.993Z,3.17
2023-04-18T09:28:01.908Z,1.77
2023-04-18T09:31:10.217Z,1.53
2023-04-18T09:34:21.291Z,4.03
2023-04-18T09:37:24.861Z,1.67
2023-04-18T09:40:27.731Z,2.10
2023-04-18T09:43:30.312Z,1.95
2023-04-18T09:46:33.215Z,1.47
2023-04-18T09:49:35.812Z,3.20
2023-04-18T09:52:41.001Z,2.90
2023-04-18T09:55:43.779Z,1.67
2023-04-18T09:58:47.815Z,1.02
2023-04-18T10:01:53.796Z,7.73
2023-04-18T10:04:57.109Z,2.72
2023-04-18T10:07:59.849Z,1.70
2023-04-18T10:11:02.530Z,3.03
2023-04-18T10:14:08.818Z,4.80
2023-04-18T10:17:11.931Z,3.67
2023-04-18T10:20:20.618Z,3.25
2023-04-18T10:23:35.034Z,1.90
2023-04-18T10:26:50.510Z,1.70
2023-04-18T10:29:54.168Z,5.57
2023-04-18T10:32:56.772Z,2.87
2023-04-18T10:36:15.055Z,2.30
2023-04-18T10:39:25.622Z,1.83
2023-04-18T10:42:52.790Z,1.40
2023-04-18T10:46:24.029Z,5.10
2023-04-18T11:07:14.852Z,3.28
2023-04-18T11:10:22.871Z,2.90
2023-04-18T11:13:25.518Z,2.40
2023-04-18T11:16:33.032Z,2.35
2023-04-18T11:19:35.473Z,2.63
2023-04-18T11:22:55.391Z,2.08
2023-04-18T11:25:58.618Z,1.58
2023-04-18T11:29:01.152Z,3.17
2023-04-18T11:32:08.058Z,4.07
2023-04-18T11:35:12.495Z,3.17
2023-04-18T11:38:16.079Z,3.38
2023-04-18T11:41:18.776Z,1.92
2023-04-18T11:44:25.001Z,3.00
2023-04-18T11:47:29.796Z,1.80
2023-04-18T11:50:37.105Z,2.70
2023-04-18T11:53:39.674Z,2.75
2023-04-18T11:56:51.097Z,2.95
2023-04-18T11:59:56.261Z,2.43
2023-04-18T12:02:59.874Z,1.90
2023-04-18T12:06:02.842Z,3.75
2023-04-18T12:09:05.756Z,3.30
2023-04-18T12:12:08.285Z,2.88
2023-04-18T12:15:15.256Z,3.13
2023-04-18T12:18:19.907Z,3.83
2023-04-18T12:21:27.039Z,3.28
2023-04-18T12:24:29.572Z,2.55
2023-04-18T12:28:00.401Z,4.93
2023-04-18T12:31:05.542Z,3.37
2023-04-18T12:34:08.068Z,4.97
2023-04-18T12:37:10.599Z,3.13
2023-04-18T12:40:13.967Z,4.55
2023-04-18T12:43:17.073Z,3.25
2023-04-18T12:46:19.640Z,2.30
2023-04-18T12:49:22.708Z,4.07
2023-04-18T12:52:25.466Z,6.32
2023-04-18T12:55:28.430Z,2.30
2023-04-18T12:58:30.983Z,2.65
2023-04-18T13:01:33.615Z,2.27
2023-04-18T13:04:36.302Z,4.13
2023-04-18T13:07:40.592Z,3.15
2023-04-18T13:10:43.089Z,2.60
2023-04-18T13:13:47.702Z,2.88
2023-04-18T13:16:50.953Z,6.37
2023-04-18T13:19:56.643Z,2.40
2023-04-18T13:22:59.690Z,3.05
2023-04-18T13:26:03.859Z,3.03
2023-04-18T13:29:06.414Z,3.50
2023-04-18T13:32:09.477Z,4.10
2023-04-18T13:35:12.081Z,3.30
2023-04-18T13:38:14.729Z,3.70
2023-04-18T13:41:17.192Z,5.03
2023-04-18T13:44:19.661Z,4.95
2023-04-18T13:47:22.134Z,2.63
2023-04-18T13:50:24.768Z,2.70
2023-04-18T13:53:28.916Z,1.75
2023-04-18T13:56:33.358Z,4.97
2023-04-18T13:59:35.936Z,2.13
2023-04-18T14:02:38.648Z,3.93
2023-04-18T14:05:41.244Z,1.38
2023-04-18T14:08:43.912Z,4.97
2023-04-18T14:11:46.441Z,3.42
2023-04-18T14:14:49.044Z,3.28
2023-04-18T14:17:51.724Z,1.80
2023-04-18T14:20:54.895Z,2.85
2023-04-18T14:23:57.398Z,3.97
2023-04-18T14:26:59.789Z,4.10
2023-04-18T14:30:02.329Z,4.70
2023-04-18T14:33:06.891Z,4.10
2023-04-18T14:36:09.874Z,3.03
2023-04-18T14:39:13.199Z,2.80
2023-04-18T14:42:17.138Z,2.92
2023-04-18T14:45:19.643Z,3.38
2023-04-18T14:48:22.179Z,5.00
2023-04-18T14:51:24.650Z,2.50
2023-04-18T14:54:27.126Z,4.65
2023-04-18T14:57:29.612Z,2.10
2023-04-18T15:00:33.207Z,1.92
2023-04-18T15:03:35.990Z,2.77
2023-04-18T15:06:38.921Z,4.32
2023-04-18T15:09:41.601Z,2.42
2023-04-18T15:12:44.084Z,5.43
2023-04-18T15:15:53.409Z,1.83
2023-04-18T15:18:55.939Z,4.40
2023-04-18T15:21:58.722Z,3.22
2023-04-18T15:25:01.188Z,2.42
2023-04-18T15:28:03.714Z,2.17
2023-04-18T15:31:06.935Z,2.03
2023-04-18T15:34:09.595Z,2.00
2023-04-18T15:37:12.052Z,3.20
2023-04-18T15:40:16.480Z,2.45
2023-04-18T15:43:19.076Z,2.20
2023-04-18T15:46:21.717Z,2.10
2023-04-18T15:49:24.400Z,2.70
2023-04-18T15:52:27.663Z,2.13
2023-04-18T15:55:30.085Z,2.53
2023-04-18T15:58:32.880Z,2.38
2023-04-18T16:01:35.813Z,2.00
2023-04-18T16:04:38.330Z,1.97
2023-04-18T16:07:42.247Z,2.58
2023-04-18T16:10:45.069Z,3.78
2023-04-18T16:13:47.723Z,3.35
2023-04-18T16:16:50.224Z,3.60
2023-04-18T16:19:52.735Z,2.70
2023-04-18T16:22:55.392Z,6.65
2023-04-18T16:25:57.993Z,8.05
2023-04-18T16:29:00.686Z,3.88
2023-04-18T16:32:03.206Z,2.25
2023-04-18T16:35:07.757Z,1.37
2023-04-18T16:38:10.401Z,2.97
2023-04-18T16:41:12.928Z,2.97
2023-04-18T16:44:16.119Z,2.30
2023-04-18T16:47:19.224Z,2.63
2023-04-18T16:50:22.687Z,6.47
2023-04-18T16:53:25.813Z,3.60
2023-04-18T16:56:29.172Z,2.55
2023-04-18T16:59:31.610Z,3.90
2023-04-18T17:02:34.336Z,3.75
2023-04-18T17:05:39.293Z,4.03
2023-04-18T17:08:41.843Z,6.78
2023-04-18T17:11:44.343Z,10.77
2023-04-18T17:14:46.843Z,11.77
2023-04-18T17:17:50.350Z,9.18
2023-04-18T17:20:52.981Z,18.30
2023-04-18T17:23:56.432Z,27.10
2023-04-18T17:26:59.321Z,19.05
2023-04-18T17:30:02.008Z,5.53
2023-04-18T17:33:04.615Z,2.38
2023-04-18T17:36:07.543Z,8.47
2023-04-18T17:39:10.933Z,6.63
2023-04-18T17:42:13.584Z,9.90
2023-04-18T17:45:17.890Z,17.02
2023-04-18T17:48:21.209Z,19.60
2023-04-18T17:51:23.856Z,16.33
2023-04-18T17:54:27.082Z,9.05
2023-04-18T17:57:30.724Z,3.42
2023-04-18T18:00:33.494Z,2.50
2023-04-18T18:03:36.477Z,2.22
2023-04-18T18:06:39.335Z,1.67
2023-04-18T18:09:42.119Z,2.60
2023-04-18T18:12:45.645Z,5.15
2023-04-18T18:15:48.325Z,2.47
2023-04-18T18:19:02.693Z,2.35
2023-04-18T18:22:05.734Z,4.33
2023-04-18T18:25:08.740Z,3.25
2023-04-18T18:28:11.659Z,3.03
2023-04-18T18:31:14.765Z,2.90
2023-04-18T18:34:17.565Z,3.47
2023-04-18T18:37:20.034Z,2.43
2023-04-18T18:40:23.617Z,2.10
2023-04-18T18:43:26.392Z,2.15
2023-04-18T18:46:29.224Z,3.08
2023-04-18T18:49:32.319Z,2.72
2023-04-18T18:52:35.291Z,2.67
2023-04-18T18:55:37.972Z,11.93
2023-04-18T18:58:41.126Z,8.23
2023-04-18T19:01:44.940Z,7.53
2023-04-18T19:04:47.904Z,6.80
2023-04-18T19:07:51.583Z,7.40
2023-04-18T19:10:54.443Z,9.38
2023-04-18T19:13:58.101Z,4.65
2023-04-18T19:17:00.960Z,6.85
2023-04-18T19:20:04.133Z,6.07
2023-04-18T19:23:07.329Z,2.30
2023-04-18T19:26:10.277Z,4.38
2023-04-18T19:29:14.495Z,2.38
2023-04-18T19:32:17.346Z,3.58
2023-04-18T19:35:20.355Z,3.60
2023-04-18T19:38:23.525Z,5.10
2023-04-18T19:41:28.272Z,7.88
2023-04-18T19:44:31.300Z,6.25
2023-04-18T19:47:34.368Z,3.05
2023-04-18T19:50:40.414Z,2.70
2023-04-18T19:53:43.239Z,5.03
2023-04-18T19:56:46.331Z,2.55
2023-04-18T19:59:49.292Z,2.45
2023-04-18T20:02:52.407Z,3.70
2023-04-18T20:05:55.616Z,3.42
2023-04-18T20:08:58.589Z,2.00
2023-04-18T20:12:02.028Z,2.25
2023-04-18T20:15:05.741Z,3.10
2023-04-18T20:18:08.528Z,3.17
2023-04-18T20:21:11.273Z,3.10
2023-04-18T20:24:15.191Z,5.67
2023-04-18T20:27:20.456Z,5.90
2023-04-18T20:30:23.666Z,3.08
2023-04-18T20:33:26.436Z,2.55
2023-04-18T20:36:30.485Z,3.65
2023-04-18T20:39:33.799Z,3.43
2023-04-18T20:42:37.173Z,3.25
2023-04-18T20:45:43.025Z,2.90
2023-04-18T20:48:45.960Z,2.85
2023-04-18T20:51:48.640Z,2.67
2023-04-18T20:54:51.227Z,2.77
2023-04-18T20:57:53.966Z,2.53
2023-04-18T21:00:56.516Z,3.22
2023-04-18T21:03:59.467Z,4.30
2023-04-18T21:07:01.953Z,3.47
2023-04-18T21:10:04.770Z,3.57
2023-04-18T21:13:07.332Z,4.63
2023-04-18T21:16:10.749Z,4.75
2023-04-18T21:19:13.883Z,5.55
2023-04-18T21:22:16.639Z,3.95
2023-04-18T21:25:21.235Z,3.50
2023-04-18T21:28:23.768Z,3.25
2023-04-18T21:31:28.683Z,4.38
2023-04-18T21:34:31.132Z,2.95
2023-04-18T21:37:33.538Z,3.60
2023-04-18T21:40:37.472Z,3.47
2023-04-18T21:43:41.047Z,2.75
2023-04-18T21:46:43.468Z,4.30
2023-04-18T21:49:46.051Z,2.20
2023-04-18T21:52:48.688Z,3.83
2023-04-18T21:55:51.069Z,2.40
2023-04-18T21:58:53.534Z,4.15
2023-04-18T22:01:56.236Z,3.45
2023-04-18T22:04:58.687Z,2.88
2023-04-18T22:08:02.831Z,3.00
2023-04-18T22:11:05.701Z,4.33
2023-04-18T22:14:09.926Z,3.63
2023-04-18T22:17:12.338Z,3.25
2023-04-18T22:20:14.900Z,2.85
2023-04-18T22:23:17.331Z,3.83
2023-04-18T22:26:19.790Z,3.10
2023-04-18T22:29:22.206Z,4.10
2023-04-18T22:32:24.852Z,3.55
2023-04-18T22:35:27.382Z,5.80
2023-04-18T22:38:29.782Z,2.83
2023-04-18T22:41:32.231Z,4.20
2023-04-18T22:44:34.886Z,2.63
2023-04-18T22:47:37.375Z,4.60
2023-04-18T22:50:42.767Z,3.65
2023-04-18T22:53:45.289Z,4.22
2023-04-18T22:56:49.559Z,4.43
2023-04-18T22:59:52.153Z,4.40
2023-04-18T23:02:54.708Z,5.88
2023-04-18T23:05:57.256Z,3.35
2023-04-18T23:08:59.854Z,4.65
2023-04-18T23:12:02.897Z,4.67
2023-04-18T23:15:06.770Z,3.22
2023-04-18T23:18:09.276Z,4.22
2023-04-18T23:21:12.107Z,2.83
2023-04-18T23:24:14.897Z,3.72
2023-04-18T23:27:17.456Z,3.70
2023-04-18T23:30:19.977Z,4.05
2023-04-18T23:33:22.604Z,3.00
2023-04-18T23:36:25.890Z,4.30
2023-04-18T23:39:28.428Z,4.65
2023-04-18T23:42:34.668Z,3.97
2023-04-18T23:45:37.444Z,5.28
2023-04-18T23:48:40.092Z,3.08
2023-04-18T23:51:42.651Z,3.63
2023-04-18T23:54:45.768Z,3.75
2023-04-18T23:57:48.350Z,4.27
